Accueil
METAR-TAF:

METAR-TAF

Aéroports :

Base aérienne de Büchel

Büchel, Allemagne

latitude: 50-10N, longitude: 007-04E, altitude: 478 m

Observation

Le bulletin a été fait il y a 14 minutes, à 19:34 UTC
Vent 6 kt de est/nord-est
Température 0°C
Humidité 93%
Pression 1012 hPa
Visibilité: 7000 m
Nuages épars à une hauteur de 500 ft

METAR: ETSB 201934Z 07006KT 7000 SCT005 M00/M01 Q1012 WHT WHT BECMG YLO

Heure: 20:48 (19:48 UTC)

Prévision

Le bulletin a été fait il y a 43 minutes, à 19:05 UTC
Prévision valable du 20 à 18 UTC au 21 à 03 UTC
Vent 6 kt de est
Visibilité 10 km ou plus
Nuages fragmentés à une hauteur de 600 ft
Probabilité 30%
du 20 à 20 UTC au 21 à 03 UTC
Vent 6 kt de est
Visibilité: 0500 m
à une hauteur de 100 ft
brouillard givrant

TAF: ETSB 201905Z 2018/2103 09006KT 9999 NSW BKN006 PROB30 2020/2103 08006KT 0500 FZFG VV001 BY ETGL

Observations et prévisions météorologiques de plus de 4000 aéroports (messages METAR et TAF).

Les stations disponibles sont représentées par des disques jaunes et rouges sur la carte.

Passer la souris dessus pour voir le nom de la station.

Cliquer dessus pour voir les observations et prévisions météorologiques.

Pour changer de carte: cliquez sur les boutons verts avec une croix noire pour zoomer, sur le bouton vert avec un tiret pour effectuer un zoom arrière, ou sur les flèches vertes pour les cartes adjacentes.


METAR-TAF: